Rechercher aéroport 
image banner adimage banner adimage banner ad
image banner ad

43CL - Dick Dale Skyranch

Situé à Twentynine Palms, United States

ICAO - 43CL, IATA -

Données fournies par Airmate  

Information générale

Coordonnées: N34°12'22" W115°59'52"
Élévation : 1793 feet MSL.
Variation magnétique : 14° East
Voir autres Aéroports à California

Données opérationnelles

Special qualification required
Heure actuelle UTC:
Heure actuelle locale:
Météo à : KNXP - Twentynine Palms Self ( 18 km )
METAR: KNXP 020456Z AUTO 33005KT 10SM CLR 34/06 A3007 RMK AO2 SLP141 T03390061
TAF: TAF KNXP 0203/0303 26010KT 9999 SKC QNH3003INS FM020630 VRB05KT 9999 SKC QNH3006INS T27/0214Z T40/0223Z
Voir NOTAMs / SUP AIP / TFR affectant cet aéroport [VIEW]
Fréquences de communication: [VIEW]

Pistes:

Identifiant RWYQFULongueur (ft)Largeur (ft)SurfaceLDA (ft)
10280085EARTH
28280085EARTH
12286085EARTH
30286085EARTH

Coordonnées de l'aéroport

Adresse: Twentynine Palms United States

Vue satellite de 43CL